createdAt,value
2022-10-02T00:19:29.204Z,79
2022-10-02T00:48:49.022Z,78
2022-10-02T01:18:15.316Z,78
2022-10-02T01:47:37.392Z,79
2022-10-02T02:16:55.212Z,77
2022-10-02T02:46:12.134Z,76
2022-10-02T03:15:27.405Z,75
2022-10-02T03:44:40.631Z,74
2022-10-02T04:14:01.790Z,75
2022-10-02T04:43:21.831Z,76
2022-10-02T05:12:37.555Z,77
2022-10-02T05:41:54.468Z,79
2022-10-02T06:11:06.704Z,80
2022-10-02T06:40:29.023Z,82
2022-10-02T07:09:43.303Z,86
2022-10-02T07:38:58.974Z,84
2022-10-02T08:08:17.502Z,82
2022-10-02T08:37:35.485Z,79
2022-10-02T09:06:45.157Z,81
2022-10-02T09:36:03.475Z,78
2022-10-02T10:05:28.838Z,78
2022-10-02T10:34:52.907Z,79
2022-10-02T11:04:10.288Z,86
2022-10-02T11:33:28.284Z,93
2022-10-02T12:02:40.066Z,91
2022-10-02T12:31:52.621Z,90
2022-10-02T13:01:03.362Z,93
2022-10-02T13:30:14.959Z,90
2022-10-02T13:59:28.080Z,92
2022-10-02T14:28:20.998Z,91
2022-10-02T14:57:35.612Z,86
2022-10-02T15:26:44.827Z,86
2022-10-02T15:55:49.693Z,86
2022-10-02T16:25:17.586Z,88
2022-10-02T16:54:43.806Z,87
2022-10-02T17:24:04.926Z,84
2022-10-02T17:53:26.007Z,84
2022-10-02T18:22:47.063Z,84
2022-10-02T18:52:11.015Z,84
2022-10-02T19:21:33.102Z,85
2022-10-02T19:50:55.948Z,86
2022-10-02T20:20:19.561Z,86
2022-10-02T20:49:41.741Z,86
2022-10-02T21:19:04.956Z,86
2022-10-02T21:48:22.422Z,86
2022-10-02T22:17:38.652Z,86
2022-10-02T22:46:48.653Z,86
2022-10-02T23:15:59.762Z,85
2022-10-02T23:45:07.536Z,86
